sensor_id;sensor_type;location;lat;lon;timestamp;P1;durP1;ratioP1;P2;durP2;ratioP2
68475;SDS011;55464;48.266;14.188;2022-11-20T00:01:05;33.88;;;14.13;;
68475;SDS011;55464;48.266;14.188;2022-11-20T00:03:36;34.65;;;15.25;;
68475;SDS011;55464;48.266;14.188;2022-11-20T00:06:02;30.73;;;14.35;;
68475;SDS011;55464;48.266;14.188;2022-11-20T00:08:29;33.35;;;14.55;;
68475;SDS011;55464;48.266;14.188;2022-11-20T00:11:01;35.72;;;15.50;;
68475;SDS011;55464;48.266;14.188;2022-11-20T00:13:28;33.90;;;14.77;;
68475;SDS011;55464;48.266;14.188;2022-11-20T00:15:57;32.15;;;15.35;;
68475;SDS011;55464;48.266;14.188;2022-11-20T00:18:25;33.35;;;15.02;;
68475;SDS011;55464;48.266;14.188;2022-11-20T00:20:51;36.08;;;15.85;;
68475;SDS011;55464;48.266;14.188;2022-11-20T00:23:17;32.92;;;15.68;;
68475;SDS011;55464;48.266;14.188;2022-11-20T00:25:43;32.17;;;15.20;;
68475;SDS011;55464;48.266;14.188;2022-11-20T00:28:08;33.45;;;16.17;;
68475;SDS011;55464;48.266;14.188;2022-11-20T00:30:34;32.97;;;15.27;;
68475;SDS011;55464;48.266;14.188;2022-11-20T00:33:03;36.28;;;16.23;;
68475;SDS011;55464;48.266;14.188;2022-11-20T00:35:37;36.63;;;16.60;;
68475;SDS011;55464;48.266;14.188;2022-11-20T00:38:03;36.03;;;16.27;;
68475;SDS011;55464;48.266;14.188;2022-11-20T00:40:29;40.22;;;17.38;;
68475;SDS011;55464;48.266;14.188;2022-11-20T00:42:54;34.58;;;15.55;;
68475;SDS011;55464;48.266;14.188;2022-11-20T00:45:23;35.63;;;15.93;;
68475;SDS011;55464;48.266;14.188;2022-11-20T00:47:50;35.95;;;15.88;;
68475;SDS011;55464;48.266;14.188;2022-11-20T00:50:19;37.08;;;16.30;;
68475;SDS011;55464;48.266;14.188;2022-11-20T00:52:46;39.78;;;16.88;;
68475;SDS011;55464;48.266;14.188;2022-11-20T00:55:11;38.30;;;16.70;;
68475;SDS011;55464;48.266;14.188;2022-11-20T00:57:37;36.70;;;16.02;;
68475;SDS011;55464;48.266;14.188;2022-11-20T01:00:03;43.08;;;17.75;;
68475;SDS011;55464;48.266;14.188;2022-11-20T01:02:29;38.85;;;16.15;;
68475;SDS011;55464;48.266;14.188;2022-11-20T01:04:55;33.08;;;15.13;;
68475;SDS011;55464;48.266;14.188;2022-11-20T01:07:23;42.00;;;18.20;;
68475;SDS011;55464;48.266;14.188;2022-11-20T01:09:49;40.63;;;17.90;;
68475;SDS011;55464;48.266;14.188;2022-11-20T01:12:15;37.08;;;16.38;;
68475;SDS011;55464;48.266;14.188;2022-11-20T01:14:40;37.55;;;16.38;;
68475;SDS011;55464;48.266;14.188;2022-11-20T01:17:06;41.17;;;18.45;;
68475;SDS011;55464;48.266;14.188;2022-11-20T01:19:31;43.78;;;17.48;;
68475;SDS011;55464;48.266;14.188;2022-11-20T01:22:00;35.63;;;16.48;;
68475;SDS011;55464;48.266;14.188;2022-11-20T01:24:29;37.90;;;16.50;;
68475;SDS011;55464;48.266;14.188;2022-11-20T01:26:54;37.15;;;16.73;;
68475;SDS011;55464;48.266;14.188;2022-11-20T01:29:21;39.95;;;17.77;;
68475;SDS011;55464;48.266;14.188;2022-11-20T01:31:49;38.92;;;17.23;;
68475;SDS011;55464;48.266;14.188;2022-11-20T01:34:17;42.58;;;17.60;;
68475;SDS011;55464;48.266;14.188;2022-11-20T01:36:44;39.13;;;18.02;;
68475;SDS011;55464;48.266;14.188;2022-11-20T01:39:12;37.75;;;16.60;;
68475;SDS011;55464;48.266;14.188;2022-11-20T01:41:38;38.97;;;16.65;;
68475;SDS011;55464;48.266;14.188;2022-11-20T01:44:42;40.78;;;16.88;;
68475;SDS011;55464;48.266;14.188;2022-11-20T01:47:26;40.85;;;17.77;;
68475;SDS011;55464;48.266;14.188;2022-11-20T01:50:14;39.22;;;16.73;;
68475;SDS011;55464;48.266;14.188;2022-11-20T01:55:18;41.63;;;17.40;;
68475;SDS011;55464;48.266;14.188;2022-11-20T01:57:46;38.30;;;16.98;;
68475;SDS011;55464;48.266;14.188;2022-11-20T02:00:14;40.63;;;17.75;;
68475;SDS011;55464;48.266;14.188;2022-11-20T02:02:44;39.77;;;17.87;;
68475;SDS011;55464;48.266;14.188;2022-11-20T02:05:27;43.78;;;18.02;;
68475;SDS011;55464;48.266;14.188;2022-11-20T02:07:59;41.05;;;17.58;;
68475;SDS011;55464;48.266;14.188;2022-11-20T02:10:28;41.50;;;18.50;;
68475;SDS011;55464;48.266;14.188;2022-11-20T02:12:57;45.08;;;18.98;;
68475;SDS011;55464;48.266;14.188;2022-11-20T02:15:42;46.75;;;19.08;;
68475;SDS011;55464;48.266;14.188;2022-11-20T02:18:09;37.13;;;17.08;;
68475;SDS011;55464;48.266;14.188;2022-11-20T02:20:40;38.65;;;17.27;;
68475;SDS011;55464;48.266;14.188;2022-11-20T02:23:11;42.30;;;18.00;;
68475;SDS011;55464;48.266;14.188;2022-11-20T02:25:43;43.85;;;18.80;;
68475;SDS011;55464;48.266;14.188;2022-11-20T02:28:10;42.35;;;17.88;;
68475;SDS011;55464;48.266;14.188;2022-11-20T02:30:38;41.72;;;17.25;;
68475;SDS011;55464;48.266;14.188;2022-11-20T02:33:03;36.95;;;16.70;;
68475;SDS011;55464;48.266;14.188;2022-11-20T02:37:56;39.50;;;16.52;;
68475;SDS011;55464;48.266;14.188;2022-11-20T02:40:26;38.55;;;17.48;;
68475;SDS011;55464;48.266;14.188;2022-11-20T02:42:55;41.90;;;18.23;;
68475;SDS011;55464;48.266;14.188;2022-11-20T02:45:22;42.15;;;18.40;;
68475;SDS011;55464;48.266;14.188;2022-11-20T02:47:56;47.75;;;18.08;;
68475;SDS011;55464;48.266;14.188;2022-11-20T02:50:26;46.10;;;19.88;;
68475;SDS011;55464;48.266;14.188;2022-11-20T02:52:51;40.35;;;18.55;;
68475;SDS011;55464;48.266;14.188;2022-11-20T02:55:17;36.15;;;16.05;;
68475;SDS011;55464;48.266;14.188;2022-11-20T02:57:43;42.08;;;18.70;;
68475;SDS011;55464;48.266;14.188;2022-11-20T03:00:09;47.90;;;18.67;;
68475;SDS011;55464;48.266;14.188;2022-11-20T03:02:40;43.80;;;17.77;;
68475;SDS011;55464;48.266;14.188;2022-11-20T03:05:06;43.55;;;18.77;;
68475;SDS011;55464;48.266;14.188;2022-11-20T03:07:33;44.60;;;18.48;;
68475;SDS011;55464;48.266;14.188;2022-11-20T03:09:59;42.13;;;17.80;;
68475;SDS011;55464;48.266;14.188;2022-11-20T03:12:25;41.33;;;17.95;;
68475;SDS011;55464;48.266;14.188;2022-11-20T03:14:52;40.47;;;17.55;;
68475;SDS011;55464;48.266;14.188;2022-11-20T03:17:17;42.13;;;17.40;;
68475;SDS011;55464;48.266;14.188;2022-11-20T03:19:45;38.03;;;17.55;;
68475;SDS011;55464;48.266;14.188;2022-11-20T03:22:11;41.90;;;17.63;;
68475;SDS011;55464;48.266;14.188;2022-11-20T03:24:39;43.22;;;18.38;;
68475;SDS011;55464;48.266;14.188;2022-11-20T03:27:05;36.35;;;17.30;;
68475;SDS011;55464;48.266;14.188;2022-11-20T03:29:32;41.38;;;18.90;;
68475;SDS011;55464;48.266;14.188;2022-11-20T03:31:57;37.08;;;16.30;;
68475;SDS011;55464;48.266;14.188;2022-11-20T03:34:23;39.33;;;16.95;;
68475;SDS011;55464;48.266;14.188;2022-11-20T03:36:51;41.17;;;17.02;;
68475;SDS011;55464;48.266;14.188;2022-11-20T03:39:17;38.45;;;16.90;;
68475;SDS011;55464;48.266;14.188;2022-11-20T03:41:42;38.05;;;17.60;;
68475;SDS011;55464;48.266;14.188;2022-11-20T03:44:09;37.30;;;17.40;;
68475;SDS011;55464;48.266;14.188;2022-11-20T03:46:36;38.88;;;17.10;;
68475;SDS011;55464;48.266;14.188;2022-11-20T03:49:06;42.60;;;16.98;;
68475;SDS011;55464;48.266;14.188;2022-11-20T03:51:32;38.22;;;16.92;;
68475;SDS011;55464;48.266;14.188;2022-11-20T03:54:01;41.25;;;17.42;;
68475;SDS011;55464;48.266;14.188;2022-11-20T03:56:30;42.00;;;18.40;;
68475;SDS011;55464;48.266;14.188;2022-11-20T03:58:57;37.53;;;16.80;;
68475;SDS011;55464;48.266;14.188;2022-11-20T04:01:25;42.17;;;17.70;;
68475;SDS011;55464;48.266;14.188;2022-11-20T04:03:53;39.08;;;16.38;;
68475;SDS011;55464;48.266;14.188;2022-11-20T04:06:21;38.85;;;17.23;;
68475;SDS011;55464;48.266;14.188;2022-11-20T04:08:54;38.80;;;16.27;;
68475;SDS011;55464;48.266;14.188;2022-11-20T04:11:21;38.22;;;17.10;;
68475;SDS011;55464;48.266;14.188;2022-11-20T04:13:59;39.53;;;16.83;;
68475;SDS011;55464;48.266;14.188;2022-11-20T04:16:26;39.40;;;16.58;;
68475;SDS011;55464;48.266;14.188;2022-11-20T04:19:01;35.22;;;16.48;;
68475;SDS011;55464;48.266;14.188;2022-11-20T04:21:34;35.85;;;16.98;;
68475;SDS011;55464;48.266;14.188;2022-11-20T04:24:00;37.10;;;16.50;;
68475;SDS011;55464;48.266;14.188;2022-11-20T04:26:26;36.72;;;16.10;;
68475;SDS011;55464;48.266;14.188;2022-11-20T04:28:58;44.65;;;17.75;;
68475;SDS011;55464;48.266;14.188;2022-11-20T04:31:26;41.83;;;18.15;;
68475;SDS011;55464;48.266;14.188;2022-11-20T04:33:53;34.90;;;16.10;;
68475;SDS011;55464;48.266;14.188;2022-11-20T04:36:20;35.22;;;15.43;;
68475;SDS011;55464;48.266;14.188;2022-11-20T04:38:51;38.35;;;17.10;;
68475;SDS011;55464;48.266;14.188;2022-11-20T04:41:21;35.97;;;15.80;;
68475;SDS011;55464;48.266;14.188;2022-11-20T04:43:48;32.90;;;15.23;;
68475;SDS011;55464;48.266;14.188;2022-11-20T04:46:16;36.95;;;16.35;;
68475;SDS011;55464;48.266;14.188;2022-11-20T04:48:43;33.38;;;15.40;;
68475;SDS011;55464;48.266;14.188;2022-11-20T04:51:08;41.78;;;16.45;;
68475;SDS011;55464;48.266;14.188;2022-11-20T04:53:34;36.22;;;16.85;;
68475;SDS011;55464;48.266;14.188;2022-11-20T04:56:00;34.70;;;17.23;;
68475;SDS011;55464;48.266;14.188;2022-11-20T04:58:33;40.53;;;17.95;;
68475;SDS011;55464;48.266;14.188;2022-11-20T05:03:28;38.75;;;17.55;;
68475;SDS011;55464;48.266;14.188;2022-11-20T05:05:55;38.75;;;16.25;;
68475;SDS011;55464;48.266;14.188;2022-11-20T05:08:20;36.35;;;15.60;;
68475;SDS011;55464;48.266;14.188;2022-11-20T05:10:46;38.38;;;15.52;;
68475;SDS011;55464;48.266;14.188;2022-11-20T05:13:12;33.50;;;15.05;;
68475;SDS011;55464;48.266;14.188;2022-11-20T05:15:46;39.17;;;16.70;;
68475;SDS011;55464;48.266;14.188;2022-11-20T05:18:12;35.08;;;15.25;;
68475;SDS011;55464;48.266;14.188;2022-11-20T05:20:38;32.20;;;15.50;;
68475;SDS011;55464;48.266;14.188;2022-11-20T05:23:04;32.75;;;16.08;;
68475;SDS011;55464;48.266;14.188;2022-11-20T05:25:30;37.47;;;16.13;;
68475;SDS011;55464;48.266;14.188;2022-11-20T05:27:58;35.38;;;16.35;;
68475;SDS011;55464;48.266;14.188;2022-11-20T05:30:24;32.88;;;14.77;;
68475;SDS011;55464;48.266;14.188;2022-11-20T05:32:52;35.28;;;15.93;;
68475;SDS011;55464;48.266;14.188;2022-11-20T05:35:18;34.50;;;15.55;;
68475;SDS011;55464;48.266;14.188;2022-11-20T05:37:44;31.27;;;14.95;;
68475;SDS011;55464;48.266;14.188;2022-11-20T05:40:10;39.63;;;16.65;;
68475;SDS011;55464;48.266;14.188;2022-11-20T05:42:39;34.00;;;16.17;;
68475;SDS011;55464;48.266;14.188;2022-11-20T05:45:04;34.17;;;15.70;;
68475;SDS011;55464;48.266;14.188;2022-11-20T05:47:32;32.25;;;14.68;;
68475;SDS011;55464;48.266;14.188;2022-11-20T05:50:01;33.42;;;15.40;;
68475;SDS011;55464;48.266;14.188;2022-11-20T05:52:30;32.95;;;15.30;;
68475;SDS011;55464;48.266;14.188;2022-11-20T05:54:57;33.08;;;14.23;;
68475;SDS011;55464;48.266;14.188;2022-11-20T05:57:26;33.38;;;14.55;;
68475;SDS011;55464;48.266;14.188;2022-11-20T05:59:56;31.63;;;14.43;;
68475;SDS011;55464;48.266;14.188;2022-11-20T06:02:21;30.95;;;13.25;;
68475;SDS011;55464;48.266;14.188;2022-11-20T06:04:59;28.52;;;12.93;;
68475;SDS011;55464;48.266;14.188;2022-11-20T06:07:24;28.52;;;13.90;;
68475;SDS011;55464;48.266;14.188;2022-11-20T06:09:51;32.42;;;13.15;;
68475;SDS011;55464;48.266;14.188;2022-11-20T06:12:20;35.35;;;14.98;;
68475;SDS011;55464;48.266;14.188;2022-11-20T06:14:45;28.92;;;12.82;;
68475;SDS011;55464;48.266;14.188;2022-11-20T06:17:11;32.67;;;14.25;;
68475;SDS011;55464;48.266;14.188;2022-11-20T06:19:38;28.95;;;13.52;;
68475;SDS011;55464;48.266;14.188;2022-11-20T06:22:04;33.80;;;15.85;;
68475;SDS011;55464;48.266;14.188;2022-11-20T06:24:29;30.05;;;13.23;;
68475;SDS011;55464;48.266;14.188;2022-11-20T06:26:55;29.95;;;13.68;;
68475;SDS011;55464;48.266;14.188;2022-11-20T06:29:20;31.58;;;14.25;;
68475;SDS011;55464;48.266;14.188;2022-11-20T06:31:46;33.65;;;16.02;;
68475;SDS011;55464;48.266;14.188;2022-11-20T06:34:12;32.65;;;14.30;;
68475;SDS011;55464;48.266;14.188;2022-11-20T06:36:37;30.45;;;13.50;;
68475;SDS011;55464;48.266;14.188;2022-11-20T06:39:03;29.77;;;14.93;;
68475;SDS011;55464;48.266;14.188;2022-11-20T06:41:29;29.55;;;14.27;;
68475;SDS011;55464;48.266;14.188;2022-11-20T06:43:55;30.25;;;13.45;;
68475;SDS011;55464;48.266;14.188;2022-11-20T06:46:22;36.33;;;15.05;;
68475;SDS011;55464;48.266;14.188;2022-11-20T06:48:48;30.85;;;16.13;;
68475;SDS011;55464;48.266;14.188;2022-11-20T06:51:15;30.30;;;14.15;;
68475;SDS011;55464;48.266;14.188;2022-11-20T06:53:41;32.45;;;14.02;;
68475;SDS011;55464;48.266;14.188;2022-11-20T06:56:07;30.17;;;13.38;;
68475;SDS011;55464;48.266;14.188;2022-11-20T06:58:33;32.30;;;14.30;;
68475;SDS011;55464;48.266;14.188;2022-11-20T07:01:02;30.35;;;14.05;;
68475;SDS011;55464;48.266;14.188;2022-11-20T07:03:29;30.73;;;14.93;;
68475;SDS011;55464;48.266;14.188;2022-11-20T07:05:56;31.58;;;14.85;;
68475;SDS011;55464;48.266;14.188;2022-11-20T07:08:25;33.72;;;14.32;;
68475;SDS011;55464;48.266;14.188;2022-11-20T07:10:51;32.40;;;14.65;;
68475;SDS011;55464;48.266;14.188;2022-11-20T07:13:19;31.60;;;14.38;;
68475;SDS011;55464;48.266;14.188;2022-11-20T07:15:45;30.30;;;14.73;;
68475;SDS011;55464;48.266;14.188;2022-11-20T07:18:11;32.28;;;14.95;;
68475;SDS011;55464;48.266;14.188;2022-11-20T07:20:37;31.45;;;14.02;;
68475;SDS011;55464;48.266;14.188;2022-11-20T07:23:03;42.88;;;18.75;;
68475;SDS011;55464;48.266;14.188;2022-11-20T07:25:31;37.08;;;17.40;;
68475;SDS011;55464;48.266;14.188;2022-11-20T07:27:58;41.35;;;18.95;;
68475;SDS011;55464;48.266;14.188;2022-11-20T07:30:26;36.65;;;18.40;;
68475;SDS011;55464;48.266;14.188;2022-11-20T07:32:55;41.53;;;19.20;;
68475;SDS011;55464;48.266;14.188;2022-11-20T07:35:24;40.10;;;18.27;;
68475;SDS011;55464;48.266;14.188;2022-11-20T07:37:53;39.60;;;18.48;;
68475;SDS011;55464;48.266;14.188;2022-11-20T07:40:18;35.47;;;16.40;;
68475;SDS011;55464;48.266;14.188;2022-11-20T07:42:52;36.38;;;17.15;;
68475;SDS011;55464;48.266;14.188;2022-11-20T07:45:19;35.47;;;16.13;;
68475;SDS011;55464;48.266;14.188;2022-11-20T07:47:46;37.80;;;16.08;;
68475;SDS011;55464;48.266;14.188;2022-11-20T07:50:12;29.38;;;15.07;;
68475;SDS011;55464;48.266;14.188;2022-11-20T07:52:41;33.75;;;15.45;;
68475;SDS011;55464;48.266;14.188;2022-11-20T07:55:08;34.88;;;15.52;;
68475;SDS011;55464;48.266;14.188;2022-11-20T07:57:34;36.72;;;17.95;;
68475;SDS011;55464;48.266;14.188;2022-11-20T08:00:00;42.28;;;18.00;;
68475;SDS011;55464;48.266;14.188;2022-11-20T08:02:27;65.45;;;27.25;;
68475;SDS011;55464;48.266;14.188;2022-11-20T08:04:53;86.40;;;34.50;;
68475;SDS011;55464;48.266;14.188;2022-11-20T08:07:21;64.82;;;28.73;;
68475;SDS011;55464;48.266;14.188;2022-11-20T08:09:47;42.72;;;19.65;;
68475;SDS011;55464;48.266;14.188;2022-11-20T08:12:17;41.00;;;17.73;;
68475;SDS011;55464;48.266;14.188;2022-11-20T08:17:29;36.83;;;17.00;;
68475;SDS011;55464;48.266;14.188;2022-11-20T08:19:55;36.15;;;16.77;;
68475;SDS011;55464;48.266;14.188;2022-11-20T08:22:24;36.83;;;15.30;;
68475;SDS011;55464;48.266;14.188;2022-11-20T08:24:52;36.50;;;15.80;;
68475;SDS011;55464;48.266;14.188;2022-11-20T08:27:18;33.92;;;14.50;;
68475;SDS011;55464;48.266;14.188;2022-11-20T08:29:47;39.58;;;16.13;;
68475;SDS011;55464;48.266;14.188;2022-11-20T08:32:12;35.78;;;14.85;;
68475;SDS011;55464;48.266;14.188;2022-11-20T08:34:38;40.88;;;16.55;;
68475;SDS011;55464;48.266;14.188;2022-11-20T08:37:03;35.55;;;17.25;;
68475;SDS011;55464;48.266;14.188;2022-11-20T08:39:29;41.03;;;17.73;;
68475;SDS011;55464;48.266;14.188;2022-11-20T08:41:55;34.72;;;16.67;;
68475;SDS011;55464;48.266;14.188;2022-11-20T08:44:20;35.83;;;15.73;;
68475;SDS011;55464;48.266;14.188;2022-11-20T08:46:46;34.75;;;15.38;;
68475;SDS011;55464;48.266;14.188;2022-11-20T08:49:13;30.10;;;14.15;;
68475;SDS011;55464;48.266;14.188;2022-11-20T08:51:39;31.98;;;16.05;;
68475;SDS011;55464;48.266;14.188;2022-11-20T08:54:06;33.92;;;15.75;;
68475;SDS011;55464;48.266;14.188;2022-11-20T08:56:32;36.60;;;15.32;;
68475;SDS011;55464;48.266;14.188;2022-11-20T08:58:58;32.25;;;15.48;;
68475;SDS011;55464;48.266;14.188;2022-11-20T09:01:24;35.90;;;16.50;;
68475;SDS011;55464;48.266;14.188;2022-11-20T09:03:50;34.03;;;15.85;;
68475;SDS011;55464;48.266;14.188;2022-11-20T09:06:16;30.00;;;14.27;;
68475;SDS011;55464;48.266;14.188;2022-11-20T09:08:42;32.67;;;16.02;;
68475;SDS011;55464;48.266;14.188;2022-11-20T09:11:08;37.67;;;17.67;;
68475;SDS011;55464;48.266;14.188;2022-11-20T09:13:35;35.70;;;16.60;;
68475;SDS011;55464;48.266;14.188;2022-11-20T09:16:02;35.20;;;17.10;;
68475;SDS011;55464;48.266;14.188;2022-11-20T09:18:31;31.50;;;15.70;;
68475;SDS011;55464;48.266;14.188;2022-11-20T09:21:01;40.10;;;16.50;;
68475;SDS011;55464;48.266;14.188;2022-11-20T09:23:30;32.97;;;15.00;;
68475;SDS011;55464;48.266;14.188;2022-11-20T09:26:01;33.63;;;15.07;;
68475;SDS011;55464;48.266;14.188;2022-11-20T09:28:27;35.88;;;16.10;;
68475;SDS011;55464;48.266;14.188;2022-11-20T09:30:56;31.25;;;15.95;;
68475;SDS011;55464;48.266;14.188;2022-11-20T09:33:22;37.42;;;15.48;;
68475;SDS011;55464;48.266;14.188;2022-11-20T09:35:50;35.83;;;16.98;;
68475;SDS011;55464;48.266;14.188;2022-11-20T09:38:16;32.17;;;15.25;;
68475;SDS011;55464;48.266;14.188;2022-11-20T09:40:47;33.75;;;16.25;;
68475;SDS011;55464;48.266;14.188;2022-11-20T09:43:45;33.63;;;16.42;;
68475;SDS011;55464;48.266;14.188;2022-11-20T09:46:37;31.10;;;15.77;;
68475;SDS011;55464;48.266;14.188;2022-11-20T09:49:15;39.10;;;18.50;;
68475;SDS011;55464;48.266;14.188;2022-11-20T09:51:59;32.30;;;14.70;;
68475;SDS011;55464;48.266;14.188;2022-11-20T09:54:27;37.67;;;16.63;;
68475;SDS011;55464;48.266;14.188;2022-11-20T09:56:58;37.72;;;18.58;;
68475;SDS011;55464;48.266;14.188;2022-11-20T09:59:34;70.60;;;30.10;;
68475;SDS011;55464;48.266;14.188;2022-11-20T10:02:01;45.83;;;20.90;;
68475;SDS011;55464;48.266;14.188;2022-11-20T10:04:31;43.20;;;19.15;;
68475;SDS011;55464;48.266;14.188;2022-11-20T10:07:07;34.13;;;16.60;;
68475;SDS011;55464;48.266;14.188;2022-11-20T10:09:43;30.63;;;14.27;;
68475;SDS011;55464;48.266;14.188;2022-11-20T10:12:37;26.52;;;13.02;;
68475;SDS011;55464;48.266;14.188;2022-11-20T10:15:17;28.85;;;14.10;;
68475;SDS011;55464;48.266;14.188;2022-11-20T10:26:37;31.27;;;14.65;;
68475;SDS011;55464;48.266;14.188;2022-11-20T10:29:11;28.83;;;14.10;;
68475;SDS011;55464;48.266;14.188;2022-11-20T10:31:40;33.08;;;15.90;;
68475;SDS011;55464;48.266;14.188;2022-11-20T10:34:27;38.38;;;17.17;;
68475;SDS011;55464;48.266;14.188;2022-11-20T10:37:09;28.75;;;13.95;;
68475;SDS011;55464;48.266;14.188;2022-11-20T10:42:42;26.00;;;12.15;;
68475;SDS011;55464;48.266;14.188;2022-11-20T10:47:49;28.95;;;13.52;;
68475;SDS011;55464;48.266;14.188;2022-11-20T10:50:26;30.10;;;14.57;;
68475;SDS011;55464;48.266;14.188;2022-11-20T10:53:00;30.02;;;14.40;;
68475;SDS011;55464;48.266;14.188;2022-11-20T11:01:27;27.65;;;14.15;;
68475;SDS011;55464;48.266;14.188;2022-11-20T11:03:55;27.27;;;13.90;;
68475;SDS011;55464;48.266;14.188;2022-11-20T11:06:31;30.40;;;15.05;;
68475;SDS011;55464;48.266;14.188;2022-11-20T11:09:11;31.98;;;15.45;;
68475;SDS011;55464;48.266;14.188;2022-11-20T11:11:41;30.52;;;15.07;;
68475;SDS011;55464;48.266;14.188;2022-11-20T11:16:40;32.13;;;16.05;;
68475;SDS011;55464;48.266;14.188;2022-11-20T11:19:17;28.27;;;13.63;;
68475;SDS011;55464;48.266;14.188;2022-11-20T11:21:49;28.05;;;14.48;;
68475;SDS011;55464;48.266;14.188;2022-11-20T11:24:26;28.90;;;14.70;;
68475;SDS011;55464;48.266;14.188;2022-11-20T11:27:01;28.45;;;14.05;;
68475;SDS011;55464;48.266;14.188;2022-11-20T11:29:35;24.85;;;13.77;;
68475;SDS011;55464;48.266;14.188;2022-11-20T11:32:08;27.90;;;13.57;;
68475;SDS011;55464;48.266;14.188;2022-11-20T11:34:37;30.35;;;16.02;;
68475;SDS011;55464;48.266;14.188;2022-11-20T11:37:04;31.25;;;16.27;;
68475;SDS011;55464;48.266;14.188;2022-11-20T11:39:54;31.30;;;16.67;;
68475;SDS011;55464;48.266;14.188;2022-11-20T11:42:19;29.38;;;15.43;;
68475;SDS011;55464;48.266;14.188;2022-11-20T11:44:48;29.38;;;15.60;;
68475;SDS011;55464;48.266;14.188;2022-11-20T11:47:31;32.55;;;15.27;;
68475;SDS011;55464;48.266;14.188;2022-11-20T11:55:41;28.15;;;14.68;;
68475;SDS011;55464;48.266;14.188;2022-11-20T12:04:04;28.52;;;14.63;;
68475;SDS011;55464;48.266;14.188;2022-11-20T12:06:36;29.98;;;14.98;;
68475;SDS011;55464;48.266;14.188;2022-11-20T12:09:10;29.55;;;14.70;;
68475;SDS011;55464;48.266;14.188;2022-11-20T12:11:43;28.10;;;14.77;;
68475;SDS011;55464;48.266;14.188;2022-11-20T12:14:32;29.70;;;14.48;;
68475;SDS011;55464;48.266;14.188;2022-11-20T12:17:01;32.58;;;16.00;;
68475;SDS011;55464;48.266;14.188;2022-11-20T12:19:31;34.15;;;15.55;;
68475;SDS011;55464;48.266;14.188;2022-11-20T12:28:18;30.33;;;15.07;;
68475;SDS011;55464;48.266;14.188;2022-11-20T12:30:50;33.03;;;16.25;;
68475;SDS011;55464;48.266;14.188;2022-11-20T12:39:01;31.55;;;15.18;;
68475;SDS011;55464;48.266;14.188;2022-11-20T12:53:43;35.88;;;17.75;;
68475;SDS011;55464;48.266;14.188;2022-11-20T13:07:15;34.60;;;17.77;;
68475;SDS011;55464;48.266;14.188;2022-11-20T13:09:46;39.70;;;19.05;;
68475;SDS011;55464;48.266;14.188;2022-11-20T13:12:15;36.63;;;18.58;;
68475;SDS011;55464;48.266;14.188;2022-11-20T13:17:57;42.10;;;19.35;;
68475;SDS011;55464;48.266;14.188;2022-11-20T13:20:25;42.25;;;20.35;;
68475;SDS011;55464;48.266;14.188;2022-11-20T13:22:52;45.20;;;22.23;;
68475;SDS011;55464;48.266;14.188;2022-11-20T13:27:50;49.75;;;23.58;;
68475;SDS011;55464;48.266;14.188;2022-11-20T13:30:18;45.60;;;22.83;;
68475;SDS011;55464;48.266;14.188;2022-11-20T13:33:28;49.80;;;23.20;;
68475;SDS011;55464;48.266;14.188;2022-11-20T13:35:55;44.53;;;21.13;;
68475;SDS011;55464;48.266;14.188;2022-11-20T13:38:25;48.70;;;23.33;;
68475;SDS011;55464;48.266;14.188;2022-11-20T13:40:55;45.67;;;22.55;;
68475;SDS011;55464;48.266;14.188;2022-11-20T13:43:48;53.35;;;23.38;;
68475;SDS011;55464;48.266;14.188;2022-11-20T13:46:15;51.38;;;24.50;;
68475;SDS011;55464;48.266;14.188;2022-11-20T13:48:41;48.40;;;22.02;;
68475;SDS011;55464;48.266;14.188;2022-11-20T13:51:12;42.45;;;20.42;;
68475;SDS011;55464;48.266;14.188;2022-11-20T13:59:24;53.00;;;23.30;;
68475;SDS011;55464;48.266;14.188;2022-11-20T14:02:14;51.35;;;24.20;;
68475;SDS011;55464;48.266;14.188;2022-11-20T14:04:46;58.53;;;25.58;;
68475;SDS011;55464;48.266;14.188;2022-11-20T14:07:14;67.13;;;27.88;;
68475;SDS011;55464;48.266;14.188;2022-11-20T14:09:54;74.65;;;29.67;;
68475;SDS011;55464;48.266;14.188;2022-11-20T14:12:23;75.65;;;29.33;;
68475;SDS011;55464;48.266;14.188;2022-11-20T14:14:56;87.30;;;32.90;;
68475;SDS011;55464;48.266;14.188;2022-11-20T14:17:24;87.68;;;34.83;;
68475;SDS011;55464;48.266;14.188;2022-11-20T14:20:02;96.50;;;36.08;;
68475;SDS011;55464;48.266;14.188;2022-11-20T14:22:31;84.50;;;35.80;;
68475;SDS011;55464;48.266;14.188;2022-11-20T14:25:04;90.07;;;38.05;;
68475;SDS011;55464;48.266;14.188;2022-11-20T14:27:47;96.38;;;36.75;;
68475;SDS011;55464;48.266;14.188;2022-11-20T14:30:26;87.10;;;33.27;;
68475;SDS011;55464;48.266;14.188;2022-11-20T14:33:04;85.50;;;34.03;;
68475;SDS011;55464;48.266;14.188;2022-11-20T14:35:31;87.57;;;35.78;;
68475;SDS011;55464;48.266;14.188;2022-11-20T14:38:02;85.85;;;34.60;;
68475;SDS011;55464;48.266;14.188;2022-11-20T14:40:32;87.68;;;36.28;;
68475;SDS011;55464;48.266;14.188;2022-11-20T14:43:15;92.38;;;36.15;;
68475;SDS011;55464;48.266;14.188;2022-11-20T14:45:46;97.53;;;39.30;;
68475;SDS011;55464;48.266;14.188;2022-11-20T14:48:21;98.15;;;39.45;;
68475;SDS011;55464;48.266;14.188;2022-11-20T14:50:51;81.82;;;34.63;;
68475;SDS011;55464;48.266;14.188;2022-11-20T14:53:21;92.07;;;36.78;;
68475;SDS011;55464;48.266;14.188;2022-11-20T14:55:54;94.80;;;39.25;;
68475;SDS011;55464;48.266;14.188;2022-11-20T14:58:27;93.45;;;38.03;;
68475;SDS011;55464;48.266;14.188;2022-11-20T15:01:05;99.03;;;40.35;;
68475;SDS011;55464;48.266;14.188;2022-11-20T15:03:36;92.90;;;37.88;;
68475;SDS011;55464;48.266;14.188;2022-11-20T15:06:04;89.35;;;35.90;;
68475;SDS011;55464;48.266;14.188;2022-11-20T15:08:31;86.50;;;35.78;;
68475;SDS011;55464;48.266;14.188;2022-11-20T15:10:57;87.70;;;34.40;;
68475;SDS011;55464;48.266;14.188;2022-11-20T15:15:54;78.60;;;30.77;;
68475;SDS011;55464;48.266;14.188;2022-11-20T15:18:22;81.13;;;34.08;;
68475;SDS011;55464;48.266;14.188;2022-11-20T15:20:51;77.40;;;32.53;;
68475;SDS011;55464;48.266;14.188;2022-11-20T15:23:20;81.88;;;34.42;;
68475;SDS011;55464;48.266;14.188;2022-11-20T15:25:47;74.78;;;32.63;;
68475;SDS011;55464;48.266;14.188;2022-11-20T15:28:16;74.60;;;32.55;;
68475;SDS011;55464;48.266;14.188;2022-11-20T15:30:44;81.10;;;31.13;;
68475;SDS011;55464;48.266;14.188;2022-11-20T15:33:14;81.25;;;32.83;;
68475;SDS011;55464;48.266;14.188;2022-11-20T15:35:41;77.25;;;30.20;;
68475;SDS011;55464;48.266;14.188;2022-11-20T15:38:06;79.40;;;31.25;;
68475;SDS011;55464;48.266;14.188;2022-11-20T15:40:32;84.80;;;30.80;;
68475;SDS011;55464;48.266;14.188;2022-11-20T15:42:58;73.32;;;29.70;;
68475;SDS011;55464;48.266;14.188;2022-11-20T15:45:36;64.88;;;29.17;;
68475;SDS011;55464;48.266;14.188;2022-11-20T15:48:04;65.72;;;28.55;;
68475;SDS011;55464;48.266;14.188;2022-11-20T15:50:37;63.90;;;28.90;;
68475;SDS011;55464;48.266;14.188;2022-11-20T15:53:07;69.30;;;28.77;;
68475;SDS011;55464;48.266;14.188;2022-11-20T15:55:34;67.43;;;28.88;;